createdAt,value
2018-05-13T00:02:28.154Z,39.70
2018-05-13T00:04:57.265Z,37.67
2018-05-13T00:07:24.686Z,39.73
2018-05-13T00:09:53.065Z,37.60
2018-05-13T00:12:20.486Z,40.87
2018-05-13T00:14:47.913Z,35.20
2018-05-13T00:17:15.393Z,44.43
2018-05-13T00:19:43.624Z,41.23
2018-05-13T00:22:11.036Z,39.20
2018-05-13T00:24:38.480Z,38.67
2018-05-13T00:27:05.905Z,35.63
2018-05-13T00:29:34.092Z,33.63
2018-05-13T00:32:01.521Z,38.57
2018-05-13T00:34:29.045Z,30.30
2018-05-13T00:36:56.496Z,40.70
2018-05-13T00:39:23.920Z,33.57
2018-05-13T00:41:51.345Z,35.83
2018-05-13T00:44:18.833Z,36.47
2018-05-13T00:46:46.289Z,29.77
2018-05-13T00:49:13.741Z,31.50
2018-05-13T00:51:41.174Z,31.50
2018-05-13T00:54:20.314Z,31.33
2018-05-13T00:56:47.869Z,28.83
2018-05-13T00:59:15.325Z,32.63
2018-05-13T01:01:42.897Z,29.37
2018-05-13T01:04:10.301Z,31.77
2018-05-13T01:06:37.737Z,33.87
2018-05-13T01:09:05.150Z,32.60
2018-05-13T01:11:33.341Z,31.00
2018-05-13T01:14:01.565Z,33.67
2018-05-13T01:16:28.980Z,34.63
2018-05-13T01:18:56.414Z,33.10
2018-05-13T01:21:23.865Z,34.87
2018-05-13T01:23:51.307Z,31.67
2018-05-13T01:26:18.788Z,33.97
2018-05-13T01:28:46.365Z,33.10
2018-05-13T01:31:13.723Z,36.20
2018-05-13T01:33:41.148Z,34.03
2018-05-13T01:36:08.665Z,34.37
2018-05-13T01:38:36.093Z,32.90
2018-05-13T01:41:03.504Z,37.47
2018-05-13T01:43:30.920Z,38.37
2018-05-13T01:45:59.159Z,35.00
2018-05-13T01:48:26.628Z,34.03
2018-05-13T01:50:54.106Z,33.30
2018-05-13T01:53:21.533Z,36.03
2018-05-13T01:55:48.968Z,34.10
2018-05-13T01:58:16.404Z,35.20
2018-05-13T02:00:43.840Z,42.97
2018-05-13T02:03:12.028Z,36.77
2018-05-13T02:05:40.259Z,37.20
2018-05-13T02:08:07.683Z,33.90
2018-05-13T02:10:35.871Z,41.27
2018-05-13T02:13:04.105Z,41.40
2018-05-13T02:15:31.526Z,39.97
2018-05-13T02:17:59.745Z,38.50
2018-05-13T02:20:27.163Z,40.80
2018-05-13T02:22:54.592Z,42.27
2018-05-13T02:25:22.058Z,39.90
2018-05-13T02:27:49.513Z,38.37
2018-05-13T02:30:16.949Z,52.30
2018-05-13T02:32:45.216Z,40.77
2018-05-13T02:35:12.850Z,47.20
2018-05-13T02:37:41.015Z,44.53
2018-05-13T02:40:09.214Z,41.03
2018-05-13T02:42:36.664Z,42.30
2018-05-13T02:45:04.078Z,48.80
2018-05-13T02:47:31.637Z,43.00
2018-05-13T02:49:59.922Z,47.43
2018-05-13T02:52:27.389Z,43.50
2018-05-13T02:54:54.825Z,39.00
2018-05-13T02:57:23.028Z,43.40
2018-05-13T02:59:50.452Z,49.77
2018-05-13T03:02:17.899Z,46.97
2018-05-13T03:04:45.292Z,44.80
2018-05-13T03:07:12.750Z,43.00
2018-05-13T03:09:40.210Z,46.00
2018-05-13T03:12:07.663Z,40.77
2018-05-13T03:14:35.125Z,41.37
2018-05-13T03:17:02.574Z,50.10
2018-05-13T03:19:30.753Z,43.97
2018-05-13T03:21:59.897Z,46.83
2018-05-13T03:24:27.315Z,48.83
2018-05-13T03:26:54.737Z,44.00
2018-05-13T03:29:22.160Z,52.97
2018-05-13T03:31:50.369Z,50.97
2018-05-13T03:34:17.892Z,47.07
2018-05-13T03:36:46.845Z,45.23
2018-05-13T03:39:15.022Z,46.00
2018-05-13T03:41:42.491Z,46.63
2018-05-13T03:44:10.688Z,53.93
2018-05-13T03:46:38.110Z,46.42
2018-05-13T03:49:05.536Z,46.73
2018-05-13T03:51:32.961Z,49.70
2018-05-13T03:54:01.157Z,45.17
2018-05-13T03:56:30.291Z,42.80
2018-05-13T03:58:57.700Z,47.63
2018-05-13T04:01:25.128Z,44.63
2018-05-13T04:03:52.553Z,46.03
2018-05-13T04:06:20.740Z,52.43
2018-05-13T04:09:00.025Z,49.60
2018-05-13T04:11:39.407Z,45.60
2018-05-13T04:14:19.509Z,46.27
2018-05-13T04:16:46.952Z,48.70
2018-05-13T04:19:14.392Z,49.77
2018-05-13T04:21:41.819Z,49.57
2018-05-13T04:24:10.001Z,55.00
2018-05-13T04:26:38.218Z,47.10
2018-05-13T04:29:05.626Z,47.50
2018-05-13T04:31:33.052Z,43.70
2018-05-13T04:34:00.469Z,46.87
2018-05-13T04:36:27.892Z,44.53
2018-05-13T04:38:55.322Z,49.20
2018-05-13T04:41:22.740Z,52.27
2018-05-13T04:43:50.301Z,44.83
2018-05-13T04:46:17.748Z,49.93
2018-05-13T04:48:45.990Z,47.87
2018-05-13T04:51:13.432Z,47.97
2018-05-13T04:53:40.844Z,48.40
2018-05-13T04:56:08.289Z,51.20
2018-05-13T04:58:35.724Z,52.17
2018-05-13T05:01:03.172Z,50.53
2018-05-13T05:03:31.561Z,54.60
2018-05-13T05:06:00.701Z,52.13
2018-05-13T05:08:28.158Z,47.00
2018-05-13T05:10:55.626Z,48.63
2018-05-13T05:13:23.046Z,48.93
2018-05-13T05:15:50.580Z,47.70
2018-05-13T05:18:18.002Z,49.53
2018-05-13T05:20:46.231Z,46.85
2018-05-13T05:23:13.704Z,50.30
2018-05-13T05:25:41.132Z,49.53
2018-05-13T05:28:09.312Z,58.70
2018-05-13T05:30:37.502Z,51.77
2018-05-13T05:33:05.681Z,49.27
2018-05-13T05:35:33.872Z,46.27
2018-05-13T05:38:02.096Z,45.03
2018-05-13T05:40:29.557Z,52.27
2018-05-13T05:42:56.991Z,55.30
2018-05-13T05:45:24.436Z,50.90
2018-05-13T05:47:51.860Z,50.83
2018-05-13T05:50:19.289Z,53.53
2018-05-13T05:52:46.806Z,47.20
2018-05-13T05:55:14.245Z,48.47
2018-05-13T05:57:42.454Z,49.80
2018-05-13T06:00:09.865Z,50.97
2018-05-13T06:02:37.289Z,54.20
2018-05-13T06:05:04.774Z,46.47
2018-05-13T06:07:32.197Z,49.40
2018-05-13T06:09:59.695Z,52.97
2018-05-13T06:12:27.125Z,67.90
2018-05-13T06:14:54.548Z,52.93
2018-05-13T06:17:21.972Z,56.03
2018-05-13T06:19:50.913Z,51.17
2018-05-13T06:22:18.398Z,48.97
2018-05-13T06:24:45.877Z,53.17
2018-05-13T06:27:13.310Z,53.67
2018-05-13T06:29:40.773Z,51.73
2018-05-13T06:32:08.197Z,58.80
2018-05-13T06:34:35.721Z,54.10
2018-05-13T06:37:03.196Z,56.07
2018-05-13T06:39:30.630Z,56.13
2018-05-13T06:41:58.049Z,56.03
2018-05-13T06:44:25.471Z,56.90
2018-05-13T06:46:53.653Z,53.30
2018-05-13T06:49:21.840Z,54.83
2018-05-13T06:51:49.332Z,56.23
2018-05-13T06:54:16.771Z,58.40
2018-05-13T06:56:44.230Z,51.73
2018-05-13T06:59:11.656Z,52.03
2018-05-13T07:01:39.109Z,55.63
2018-05-13T07:04:06.533Z,60.60
2018-05-13T07:06:34.053Z,50.93
2018-05-13T07:09:03.049Z,52.83
2018-05-13T07:11:30.532Z,55.03
2018-05-13T07:13:57.991Z,55.10
2018-05-13T07:16:25.471Z,50.80
2018-05-13T07:18:52.846Z,55.13
2018-05-13T07:21:20.257Z,50.13
2018-05-13T07:23:47.729Z,48.53
2018-05-13T07:26:15.256Z,54.97
2018-05-13T07:28:42.698Z,50.43
2018-05-13T07:31:10.129Z,57.03
2018-05-13T07:33:37.637Z,50.97
2018-05-13T07:36:05.057Z,56.53
2018-05-13T07:38:33.475Z,51.50
2018-05-13T07:41:02.588Z,51.93
2018-05-13T07:43:30.884Z,50.83
2018-05-13T07:45:58.984Z,52.70
2018-05-13T07:48:26.450Z,54.10
2018-05-13T07:50:53.929Z,54.83
2018-05-13T07:53:21.389Z,53.17
2018-05-13T07:55:48.834Z,49.23
2018-05-13T07:58:17.029Z,54.23
2018-05-13T08:00:45.225Z,54.83
2018-05-13T08:03:12.676Z,51.30
2018-05-13T08:05:40.859Z,50.60
2018-05-13T08:08:09.061Z,52.10
2018-05-13T08:10:37.236Z,50.87
2018-05-13T08:13:05.456Z,55.97
2018-05-13T08:15:33.953Z,47.57
2018-05-13T08:18:01.377Z,52.80
2018-05-13T08:20:29.713Z,49.43
2018-05-13T08:22:57.068Z,50.43
2018-05-13T08:25:24.499Z,49.07
2018-05-13T08:27:52.701Z,47.07
2018-05-13T08:30:20.921Z,50.00
2018-05-13T08:32:48.493Z,47.00
2018-05-13T08:35:15.938Z,49.27
2018-05-13T08:37:43.381Z,43.83
2018-05-13T08:40:11.601Z,48.87
2018-05-13T08:42:39.012Z,49.70
2018-05-13T08:45:06.432Z,46.60
2018-05-13T08:47:34.002Z,48.83
2018-05-13T08:50:02.177Z,50.60
2018-05-13T08:52:29.641Z,48.83
2018-05-13T08:54:57.820Z,48.20
2018-05-13T08:57:26.021Z,54.10
2018-05-13T08:59:54.428Z,45.03
2018-05-13T09:02:21.877Z,47.70
2018-05-13T09:04:50.190Z,46.40
2018-05-13T09:07:18.555Z,43.50
2018-05-13T09:09:47.036Z,46.50
2018-05-13T09:12:14.520Z,50.50
2018-05-13T09:14:42.043Z,47.00
2018-05-13T09:17:09.475Z,42.93
2018-05-13T09:19:36.889Z,48.00
2018-05-13T09:22:04.431Z,50.73
2018-05-13T09:24:31.917Z,55.40
2018-05-13T09:26:59.381Z,47.90
2018-05-13T09:29:26.828Z,43.73
2018-05-13T09:31:54.254Z,43.10
2018-05-13T09:34:22.580Z,46.80
2018-05-13T09:36:49.995Z,44.27
2018-05-13T09:39:17.417Z,44.30
2018-05-13T09:41:44.910Z,48.73
2018-05-13T09:44:12.313Z,40.77
2018-05-13T09:46:39.729Z,42.73
2018-05-13T09:49:07.180Z,39.43
2018-05-13T09:51:34.608Z,37.03
2018-05-13T09:54:02.034Z,36.97
2018-05-13T09:56:29.453Z,48.83
2018-05-13T09:58:57.640Z,35.63
2018-05-13T10:01:25.912Z,33.03
2018-05-13T10:03:53.466Z,29.23
2018-05-13T10:06:20.888Z,34.93
2018-05-13T10:08:48.325Z,32.63
2018-05-13T10:11:15.750Z,29.33
2018-05-13T10:13:43.187Z,26.43
2018-05-13T10:16:11.365Z,34.90
2018-05-13T10:18:39.577Z,33.07
2018-05-13T10:21:07.034Z,28.10
2018-05-13T10:23:35.612Z,31.33
2018-05-13T10:26:04.761Z,33.97
2018-05-13T10:28:32.223Z,24.17
2018-05-13T10:30:59.680Z,30.43
2018-05-13T10:33:27.108Z,38.73
2018-05-13T10:35:54.645Z,28.03
2018-05-13T10:38:22.063Z,26.70
2018-05-13T10:40:49.650Z,26.60
2018-05-13T10:43:17.888Z,33.90
2018-05-13T10:45:45.362Z,28.17
2018-05-13T10:48:12.813Z,28.13
2018-05-13T10:50:40.260Z,31.77
2018-05-13T10:53:07.728Z,44.53
2018-05-13T10:55:36.001Z,34.00
2018-05-13T10:58:05.111Z,30.13
2018-05-13T11:00:33.323Z,27.73
2018-05-13T11:03:00.757Z,30.70
2018-05-13T11:05:28.957Z,33.70
2018-05-13T11:07:56.388Z,29.67
2018-05-13T11:10:23.876Z,34.90
2018-05-13T11:12:51.663Z,32.50
2018-05-13T11:15:19.861Z,31.80
2018-05-13T11:17:47.310Z,29.97
2018-05-13T11:20:15.512Z,25.80
2018-05-13T11:22:43.739Z,24.77
2018-05-13T11:25:11.179Z,27.00
2018-05-13T11:27:39.348Z,23.10
2018-05-13T11:30:07.545Z,22.70
2018-05-13T11:32:36.537Z,21.40
2018-05-13T11:35:03.973Z,22.43
2018-05-13T11:37:31.393Z,19.67
2018-05-13T11:39:58.901Z,24.33
2018-05-13T11:42:26.337Z,19.20
2018-05-13T11:44:53.768Z,20.73
2018-05-13T11:47:21.272Z,15.97
2018-05-13T11:49:49.466Z,17.80
2018-05-13T11:52:16.892Z,17.93
2018-05-13T11:54:45.085Z,24.60
2018-05-13T11:57:13.316Z,24.10
2018-05-13T11:59:40.738Z,17.77
2018-05-13T12:02:08.996Z,25.67
2018-05-13T12:04:37.144Z,19.50
2018-05-13T12:07:04.604Z,19.00
2018-05-13T12:09:32.078Z,20.20
2018-05-13T12:11:59.545Z,18.10
2018-05-13T12:14:26.971Z,19.70
2018-05-13T12:16:54.381Z,18.03
2018-05-13T12:19:21.812Z,16.23
2018-05-13T12:21:49.308Z,35.93
2018-05-13T12:24:17.506Z,21.23
2018-05-13T12:26:44.946Z,17.40
2018-05-13T12:29:12.381Z,15.33
2018-05-13T12:31:39.800Z,15.53
2018-05-13T12:34:07.220Z,15.10
2018-05-13T12:36:34.644Z,24.57
2018-05-13T12:39:02.066Z,16.50
2018-05-13T12:41:29.499Z,21.47
2018-05-13T12:43:56.927Z,19.20
2018-05-13T12:46:24.356Z,15.10
2018-05-13T12:48:51.769Z,17.70
2018-05-13T12:51:19.948Z,16.63
2018-05-13T12:53:48.143Z,21.13
2018-05-13T12:56:15.716Z,18.10
2018-05-13T12:58:43.076Z,16.30
2018-05-13T13:01:11.253Z,18.10
2018-05-13T13:03:39.490Z,22.00
2018-05-13T13:06:07.928Z,17.37
2018-05-13T13:08:35.339Z,13.30
2018-05-13T13:11:02.802Z,13.80
2018-05-13T13:13:30.261Z,17.13
2018-05-13T13:15:57.741Z,14.17
2018-05-13T13:18:25.213Z,11.60
2018-05-13T13:20:52.637Z,12.20
2018-05-13T13:23:20.090Z,12.10
2018-05-13T13:25:47.549Z,17.03
2018-05-13T13:28:15.002Z,13.37
2018-05-13T13:30:42.465Z,16.20
2018-05-13T13:33:09.882Z,14.00
2018-05-13T13:35:38.464Z,17.00
2018-05-13T13:38:07.486Z,13.20
2018-05-13T13:40:35.704Z,20.53
2018-05-13T13:43:03.137Z,11.23
2018-05-13T13:45:31.324Z,14.67
2018-05-13T13:47:59.512Z,22.53
2018-05-13T13:50:27.745Z,15.37
2018-05-13T13:52:55.210Z,10.63
2018-05-13T13:55:22.623Z,13.17
2018-05-13T13:57:50.053Z,12.57
2018-05-13T14:00:17.473Z,12.30
2018-05-13T14:02:45.697Z,15.77
2018-05-13T14:05:13.274Z,14.17
2018-05-13T14:07:40.936Z,11.60
2018-05-13T14:10:08.425Z,13.33
2018-05-13T14:12:36.005Z,19.07
2018-05-13T14:15:03.466Z,13.77
2018-05-13T14:17:30.885Z,14.13
2018-05-13T14:19:58.385Z,11.40
2018-05-13T14:22:25.753Z,10.47
2018-05-13T14:24:53.172Z,18.20
2018-05-13T14:27:20.792Z,17.30
2018-05-13T14:29:48.312Z,17.73
2018-05-13T14:32:15.754Z,16.20
2018-05-13T14:34:43.210Z,12.77
2018-05-13T14:37:10.668Z,20.97
2018-05-13T14:39:39.446Z,14.67
2018-05-13T14:42:08.548Z,17.00
2018-05-13T14:44:36.768Z,18.47
2018-05-13T14:47:04.229Z,15.63
2018-05-13T14:49:31.724Z,19.13
2018-05-13T14:51:59.179Z,14.17
2018-05-13T14:54:26.585Z,10.83
2018-05-13T14:56:54.006Z,16.77
2018-05-13T14:59:21.473Z,12.40
2018-05-13T15:01:48.920Z,10.33
2018-05-13T15:04:17.105Z,13.83
2018-05-13T15:06:45.294Z,28.53
2018-05-13T15:09:13.502Z,13.37
2018-05-13T15:11:40.911Z,16.47
2018-05-13T15:14:09.257Z,13.07
2018-05-13T15:16:36.749Z,16.57
2018-05-13T15:19:04.183Z,17.77
2018-05-13T15:21:32.424Z,15.83
2018-05-13T15:23:59.838Z,16.80
2018-05-13T15:26:27.259Z,13.57
2018-05-13T15:28:54.689Z,22.97
2018-05-13T15:31:22.170Z,13.80
2018-05-13T15:33:49.574Z,15.90
2018-05-13T15:36:17.454Z,19.33
2018-05-13T15:38:45.398Z,16.33
2018-05-13T15:41:12.942Z,15.40
2018-05-13T15:43:41.108Z,15.33
2018-05-13T15:46:10.242Z,19.33
2018-05-13T15:48:37.760Z,15.87
2018-05-13T15:51:05.164Z,17.20
2018-05-13T15:53:33.434Z,16.07
2018-05-13T15:56:00.869Z,17.53
2018-05-13T15:58:28.272Z,22.90
2018-05-13T16:00:55.859Z,24.53
2018-05-13T16:03:23.381Z,22.73
2018-05-13T16:05:51.044Z,16.60
2018-05-13T16:08:18.492Z,18.03
2018-05-13T16:10:46.724Z,22.90
2018-05-13T16:13:14.147Z,19.13
2018-05-13T16:15:41.569Z,18.63
2018-05-13T16:18:09.140Z,17.50
2018-05-13T16:20:37.353Z,18.10
2018-05-13T16:23:05.546Z,20.27
2018-05-13T16:25:33.734Z,13.50
2018-05-13T16:28:01.180Z,17.87
2018-05-13T16:30:28.681Z,17.00
2018-05-13T16:32:56.158Z,18.67
2018-05-13T16:35:23.595Z,13.97
2018-05-13T16:37:51.796Z,19.70
2018-05-13T16:40:19.997Z,15.00
2018-05-13T16:42:47.535Z,19.53
2018-05-13T16:45:15.139Z,22.27
2018-05-13T16:47:42.552Z,18.73
2018-05-13T16:50:11.490Z,16.60
2018-05-13T16:52:40.584Z,14.43
2018-05-13T16:55:08.810Z,16.33
2018-05-13T16:57:36.274Z,18.20
2018-05-13T17:00:03.696Z,24.53
2018-05-13T17:02:31.211Z,18.13
2018-05-13T17:04:58.545Z,25.43
2018-05-13T17:07:26.768Z,16.67
2018-05-13T17:09:54.246Z,21.10
2018-05-13T17:12:21.729Z,20.60
2018-05-13T17:14:49.165Z,18.10
2018-05-13T17:17:16.740Z,15.77
2018-05-13T17:19:44.844Z,15.10
2018-05-13T17:22:12.279Z,13.17
2018-05-13T17:24:39.780Z,19.67
2018-05-13T17:27:07.207Z,20.63
2018-05-13T17:29:35.416Z,16.00
2018-05-13T17:32:02.866Z,18.03
2018-05-13T17:34:31.075Z,20.67
2018-05-13T17:36:58.474Z,14.80
2018-05-13T17:39:25.952Z,24.07
2018-05-13T17:41:53.332Z,19.20
2018-05-13T17:44:20.769Z,21.00
2018-05-13T17:46:48.201Z,13.30
2018-05-13T17:49:16.507Z,20.63
2018-05-13T17:51:44.709Z,20.73
2018-05-13T17:54:12.139Z,32.63
2018-05-13T17:56:40.321Z,27.43
2018-05-13T17:59:08.504Z,16.33
2018-05-13T18:01:36.709Z,20.27
2018-05-13T18:04:04.117Z,14.13
2018-05-13T18:06:31.539Z,16.43
2018-05-13T18:08:58.976Z,14.23
2018-05-13T18:11:26.513Z,16.93
2018-05-13T18:13:53.942Z,16.83
2018-05-13T18:16:22.129Z,15.70
2018-05-13T18:18:50.340Z,16.00
2018-05-13T18:21:17.819Z,22.98
2018-05-13T18:23:45.297Z,17.03
2018-05-13T18:26:12.826Z,17.43
2018-05-13T18:28:40.997Z,11.87
2018-05-13T18:31:09.265Z,19.43
2018-05-13T18:33:36.648Z,15.83
2018-05-13T18:36:04.068Z,14.80
2018-05-13T18:38:31.493Z,18.30
2018-05-13T18:40:59.694Z,14.17
2018-05-13T18:43:27.897Z,12.30
2018-05-13T18:45:55.322Z,17.93
2018-05-13T18:48:22.738Z,14.27
2018-05-13T18:50:50.248Z,18.10
2018-05-13T18:53:17.760Z,18.50
2018-05-13T18:55:45.280Z,16.13
2018-05-13T18:58:13.620Z,19.20
2018-05-13T19:00:41.038Z,21.10
2018-05-13T19:03:08.470Z,18.53
2018-05-13T19:05:35.886Z,17.43
2018-05-13T19:08:03.320Z,12.57
2018-05-13T19:10:30.724Z,16.67
2018-05-13T19:12:58.908Z,12.23
2018-05-13T19:15:26.353Z,16.77
2018-05-13T19:17:53.811Z,18.40
2018-05-13T19:20:21.307Z,12.90
2018-05-13T19:22:48.735Z,18.30
2018-05-13T19:25:16.181Z,15.67
2018-05-13T19:27:43.627Z,16.80
2018-05-13T19:30:11.052Z,24.13
2018-05-13T19:32:38.503Z,24.30
2018-05-13T19:35:05.980Z,13.80
2018-05-13T19:37:33.463Z,15.30
2018-05-13T19:40:00.915Z,14.87
2018-05-13T19:42:28.393Z,16.90
2018-05-13T19:44:55.830Z,14.70
2018-05-13T19:47:24.012Z,18.87
2018-05-13T19:49:52.208Z,25.73
2018-05-13T19:52:19.667Z,17.48
2018-05-13T19:54:47.982Z,14.53
2018-05-13T19:57:16.207Z,16.30
2018-05-13T19:59:44.608Z,14.45
2018-05-13T20:02:12.032Z,17.40
2018-05-13T20:04:39.478Z,17.97
2018-05-13T20:07:07.677Z,25.53
2018-05-13T20:09:35.191Z,16.17
2018-05-13T20:12:03.304Z,19.87
2018-05-13T20:14:31.524Z,18.30
2018-05-13T20:16:58.936Z,20.70
2018-05-13T20:19:26.365Z,17.83
2018-05-13T20:21:53.784Z,18.73
2018-05-13T20:24:21.302Z,21.90
2018-05-13T20:26:48.716Z,18.60
2018-05-13T20:29:16.142Z,19.83
2018-05-13T20:31:44.417Z,18.33
2018-05-13T20:34:11.835Z,18.33
2018-05-13T20:36:39.530Z,21.33
2018-05-13T20:39:07.763Z,19.73
2018-05-13T20:41:35.218Z,23.53
2018-05-13T20:44:02.693Z,22.80
2018-05-13T20:46:30.157Z,18.47
2018-05-13T20:48:57.564Z,20.60
2018-05-13T20:51:25.017Z,18.10
2018-05-13T20:53:52.436Z,19.27
2018-05-13T20:56:19.929Z,20.00
2018-05-13T20:58:47.419Z,27.70
2018-05-13T21:01:15.002Z,17.52
2018-05-13T21:03:42.443Z,20.80
2018-05-13T21:06:09.875Z,17.33
2018-05-13T21:08:37.374Z,21.03
2018-05-13T21:11:04.808Z,21.37
2018-05-13T21:13:32.314Z,23.97
2018-05-13T21:15:59.811Z,21.10
2018-05-13T21:18:27.218Z,20.70
2018-05-13T21:20:54.643Z,21.93
2018-05-13T21:23:22.193Z,21.43
2018-05-13T21:25:49.557Z,19.87
2018-05-13T21:28:17.045Z,23.07
2018-05-13T21:30:45.430Z,21.23
2018-05-13T21:33:12.854Z,21.60
2018-05-13T21:35:41.068Z,21.10
2018-05-13T21:38:08.572Z,18.70
2018-05-13T21:40:35.990Z,25.03
2018-05-13T21:43:04.173Z,26.83
2018-05-13T21:45:32.355Z,21.67
2018-05-13T21:48:00.549Z,21.17
2018-05-13T21:50:28.745Z,26.57
2018-05-13T21:52:56.229Z,21.10
2018-05-13T21:55:23.681Z,20.60
2018-05-13T21:57:51.101Z,22.67
2018-05-13T22:00:18.545Z,23.53
2018-05-13T22:02:45.976Z,24.23
2018-05-13T22:05:14.196Z,24.50
2018-05-13T22:07:41.632Z,24.60
2018-05-13T22:10:09.817Z,25.70
2018-05-13T22:12:37.999Z,23.67
2018-05-13T22:15:06.184Z,24.93
2018-05-13T22:17:34.498Z,25.40
2018-05-13T22:20:02.555Z,23.30
2018-05-13T22:22:30.777Z,23.50
2018-05-13T22:24:58.205Z,23.27
2018-05-13T22:27:25.638Z,25.53
2018-05-13T22:29:53.072Z,25.57
2018-05-13T22:32:20.530Z,22.93
2018-05-13T22:34:48.114Z,24.63
2018-05-13T22:37:16.470Z,25.10
2018-05-13T22:39:44.716Z,26.43
2018-05-13T22:42:12.147Z,29.90
2018-05-13T22:44:39.575Z,26.83
2018-05-13T22:47:07.020Z,31.50
2018-05-13T22:49:34.450Z,29.20
2018-05-13T22:52:02.752Z,26.80
2018-05-13T22:54:30.921Z,25.70
2018-05-13T22:56:59.113Z,27.53
2018-05-13T22:59:26.549Z,35.30
2018-05-13T23:01:54.087Z,27.50
2018-05-13T23:04:21.583Z,26.47
2018-05-13T23:06:49.703Z,27.90
2018-05-13T23:09:18.052Z,27.48
2018-05-13T23:11:46.361Z,24.83
2018-05-13T23:14:14.555Z,26.17
2018-05-13T23:16:42.750Z,25.30
2018-05-13T23:19:10.935Z,29.27
2018-05-13T23:21:39.149Z,28.10
2018-05-13T23:24:06.605Z,31.27
2018-05-13T23:26:34.033Z,29.77
2018-05-13T23:29:01.460Z,32.30
2018-05-13T23:31:28.936Z,32.30
2018-05-13T23:33:56.696Z,30.73
2018-05-13T23:36:24.120Z,58.60
2018-05-13T23:38:51.545Z,31.37
2018-05-13T23:41:19.053Z,29.30
2018-05-13T23:43:48.101Z,36.20
2018-05-13T23:46:15.609Z,30.90
2018-05-13T23:48:43.144Z,31.00
2018-05-13T23:51:10.560Z,31.57
2018-05-13T23:53:37.989Z,33.17
2018-05-13T23:56:05.456Z,36.63
2018-05-13T23:58:32.895Z,38.23
